sensor_id;sensor_type;location;lat;lon;timestamp;P1;P2;P0
56069;PMS5003;41944;52.078;-0.058;2023-06-14T00:00:18;7;7;
56069;PMS5003;41944;52.078;-0.058;2023-06-14T00:02:45;6;6;
56069;PMS5003;41944;52.078;-0.058;2023-06-14T00:05:12;10;8;
56069;PMS5003;41944;52.078;-0.058;2023-06-14T00:07:40;8;7;
56069;PMS5003;41944;52.078;-0.058;2023-06-14T00:10:08;10;8;
56069;PMS5003;41944;52.078;-0.058;2023-06-14T00:12:37;6;5;
56069;PMS5003;41944;52.078;-0.058;2023-06-14T00:15:05;8;8;
56069;PMS5003;41944;52.078;-0.058;2023-06-14T00:17:33;6;6;
56069;PMS5003;41944;52.078;-0.058;2023-06-14T00:20:00;7;6;
56069;PMS5003;41944;52.078;-0.058;2023-06-14T00:22:28;8;7;
56069;PMS5003;41944;52.078;-0.058;2023-06-14T00:24:55;8;8;
56069;PMS5003;41944;52.078;-0.058;2023-06-14T00:27:22;7;7;
56069;PMS5003;41944;52.078;-0.058;2023-06-14T00:29:49;8;6;
56069;PMS5003;41944;52.078;-0.058;2023-06-14T00:32:18;9;7;
56069;PMS5003;41944;52.078;-0.058;2023-06-14T00:34:45;10;8;
56069;PMS5003;41944;52.078;-0.058;2023-06-14T00:37:12;9;8;
56069;PMS5003;41944;52.078;-0.058;2023-06-14T00:39:39;8;6;
56069;PMS5003;41944;52.078;-0.058;2023-06-14T00:42:06;11;9;
56069;PMS5003;41944;52.078;-0.058;2023-06-14T00:44:33;9;9;
56069;PMS5003;41944;52.078;-0.058;2023-06-14T00:47:00;10;7;
56069;PMS5003;41944;52.078;-0.058;2023-06-14T00:49:27;7;7;
56069;PMS5003;41944;52.078;-0.058;2023-06-14T00:51:56;7;7;
56069;PMS5003;41944;52.078;-0.058;2023-06-14T00:54:23;9;9;
56069;PMS5003;41944;52.078;-0.058;2023-06-14T00:56:50;10;7;
56069;PMS5003;41944;52.078;-0.058;2023-06-14T00:59:17;9;8;
56069;PMS5003;41944;52.078;-0.058;2023-06-14T01:01:45;11;8;
56069;PMS5003;41944;52.078;-0.058;2023-06-14T01:04:12;6;6;
56069;PMS5003;41944;52.078;-0.058;2023-06-14T01:06:40;11;8;
56069;PMS5003;41944;52.078;-0.058;2023-06-14T01:09:15;10;10;
56069;PMS5003;41944;52.078;-0.058;2023-06-14T01:11:48;8;8;
56069;PMS5003;41944;52.078;-0.058;2023-06-14T01:14:21;6;6;
56069;PMS5003;41944;52.078;-0.058;2023-06-14T01:16:49;10;7;
56069;PMS5003;41944;52.078;-0.058;2023-06-14T01:19:17;8;7;
56069;PMS5003;41944;52.078;-0.058;2023-06-14T01:21:45;11;9;
56069;PMS5003;41944;52.078;-0.058;2023-06-14T01:24:12;6;6;
56069;PMS5003;41944;52.078;-0.058;2023-06-14T01:26:39;8;6;
56069;PMS5003;41944;52.078;-0.058;2023-06-14T01:29:06;6;6;
56069;PMS5003;41944;52.078;-0.058;2023-06-14T01:31:34;6;6;
56069;PMS5003;41944;52.078;-0.058;2023-06-14T01:34:01;10;8;
56069;PMS5003;41944;52.078;-0.058;2023-06-14T01:36:28;9;9;
56069;PMS5003;41944;52.078;-0.058;2023-06-14T01:38:55;10;6;
56069;PMS5003;41944;52.078;-0.058;2023-06-14T01:41:22;7;7;
56069;PMS5003;41944;52.078;-0.058;2023-06-14T01:43:50;8;8;
56069;PMS5003;41944;52.078;-0.058;2023-06-14T01:46:17;10;8;
56069;PMS5003;41944;52.078;-0.058;2023-06-14T01:48:46;12;9;
56069;PMS5003;41944;52.078;-0.058;2023-06-14T01:51:13;10;8;
56069;PMS5003;41944;52.078;-0.058;2023-06-14T01:53:40;9;9;
56069;PMS5003;41944;52.078;-0.058;2023-06-14T01:56:07;8;7;
56069;PMS5003;41944;52.078;-0.058;2023-06-14T01:58:33;10;7;
56069;PMS5003;41944;52.078;-0.058;2023-06-14T02:01:00;7;7;
56069;PMS5003;41944;52.078;-0.058;2023-06-14T02:03:27;7;7;
56069;PMS5003;41944;52.078;-0.058;2023-06-14T02:05:54;8;8;
56069;PMS5003;41944;52.078;-0.058;2023-06-14T02:08:21;8;7;
56069;PMS5003;41944;52.078;-0.058;2023-06-14T02:10:48;8;6;
56069;PMS5003;41944;52.078;-0.058;2023-06-14T02:13:16;9;8;
56069;PMS5003;41944;52.078;-0.058;2023-06-14T02:15:43;7;7;
56069;PMS5003;41944;52.078;-0.058;2023-06-14T02:18:09;7;7;
56069;PMS5003;41944;52.078;-0.058;2023-06-14T02:20:37;7;7;
56069;PMS5003;41944;52.078;-0.058;2023-06-14T02:23:04;9;7;
56069;PMS5003;41944;52.078;-0.058;2023-06-14T02:25:31;7;7;
56069;PMS5003;41944;52.078;-0.058;2023-06-14T02:27:58;8;7;
56069;PMS5003;41944;52.078;-0.058;2023-06-14T02:30:25;9;7;
56069;PMS5003;41944;52.078;-0.058;2023-06-14T02:32:52;8;8;
56069;PMS5003;41944;52.078;-0.058;2023-06-14T02:35:19;9;9;
56069;PMS5003;41944;52.078;-0.058;2023-06-14T02:37:46;13;10;
56069;PMS5003;41944;52.078;-0.058;2023-06-14T02:40:13;9;7;
56069;PMS5003;41944;52.078;-0.058;2023-06-14T02:42:39;7;7;
56069;PMS5003;41944;52.078;-0.058;2023-06-14T02:45:07;7;7;
56069;PMS5003;41944;52.078;-0.058;2023-06-14T02:47:35;8;8;
56069;PMS5003;41944;52.078;-0.058;2023-06-14T02:50:02;10;9;
56069;PMS5003;41944;52.078;-0.058;2023-06-14T02:52:29;8;8;
56069;PMS5003;41944;52.078;-0.058;2023-06-14T02:54:56;12;9;
56069;PMS5003;41944;52.078;-0.058;2023-06-14T02:57:23;10;9;
56069;PMS5003;41944;52.078;-0.058;2023-06-14T02:59:50;10;9;
56069;PMS5003;41944;52.078;-0.058;2023-06-14T03:02:18;10;9;
56069;PMS5003;41944;52.078;-0.058;2023-06-14T03:04:45;14;10;
56069;PMS5003;41944;52.078;-0.058;2023-06-14T03:07:12;9;9;
56069;PMS5003;41944;52.078;-0.058;2023-06-14T03:09:39;15;13;
56069;PMS5003;41944;52.078;-0.058;2023-06-14T03:12:06;15;9;
56069;PMS5003;41944;52.078;-0.058;2023-06-14T03:14:34;10;9;
56069;PMS5003;41944;52.078;-0.058;2023-06-14T03:17:01;9;8;
56069;PMS5003;41944;52.078;-0.058;2023-06-14T03:19:29;10;10;
56069;PMS5003;41944;52.078;-0.058;2023-06-14T03:21:56;8;8;
56069;PMS5003;41944;52.078;-0.058;2023-06-14T03:24:23;11;9;
56069;PMS5003;41944;52.078;-0.058;2023-06-14T03:26:50;9;9;
56069;PMS5003;41944;52.078;-0.058;2023-06-14T03:29:18;7;7;
56069;PMS5003;41944;52.078;-0.058;2023-06-14T03:31:56;14;9;
56069;PMS5003;41944;52.078;-0.058;2023-06-14T03:34:24;16;13;
56069;PMS5003;41944;52.078;-0.058;2023-06-14T03:36:50;7;7;
56069;PMS5003;41944;52.078;-0.058;2023-06-14T03:39:18;9;9;
56069;PMS5003;41944;52.078;-0.058;2023-06-14T03:41:46;11;9;
56069;PMS5003;41944;52.078;-0.058;2023-06-14T03:44:14;9;9;
56069;PMS5003;41944;52.078;-0.058;2023-06-14T03:46:42;8;8;
56069;PMS5003;41944;52.078;-0.058;2023-06-14T03:49:10;11;9;
56069;PMS5003;41944;52.078;-0.058;2023-06-14T03:51:37;10;8;
56069;PMS5003;41944;52.078;-0.058;2023-06-14T03:54:04;11;11;
56069;PMS5003;41944;52.078;-0.058;2023-06-14T03:56:31;9;9;
56069;PMS5003;41944;52.078;-0.058;2023-06-14T03:58:58;11;10;
56069;PMS5003;41944;52.078;-0.058;2023-06-14T04:01:25;7;7;
56069;PMS5003;41944;52.078;-0.058;2023-06-14T04:03:52;9;9;
56069;PMS5003;41944;52.078;-0.058;2023-06-14T04:06:18;10;8;
56069;PMS5003;41944;52.078;-0.058;2023-06-14T04:08:45;7;7;
56069;PMS5003;41944;52.078;-0.058;2023-06-14T04:11:12;11;10;
56069;PMS5003;41944;52.078;-0.058;2023-06-14T04:13:39;13;11;
56069;PMS5003;41944;52.078;-0.058;2023-06-14T04:16:06;10;10;
56069;PMS5003;41944;52.078;-0.058;2023-06-14T04:18:33;13;13;
56069;PMS5003;41944;52.078;-0.058;2023-06-14T04:21:00;10;7;
56069;PMS5003;41944;52.078;-0.058;2023-06-14T04:23:27;9;9;
56069;PMS5003;41944;52.078;-0.058;2023-06-14T04:25:54;12;8;
56069;PMS5003;41944;52.078;-0.058;2023-06-14T04:28:20;10;8;
56069;PMS5003;41944;52.078;-0.058;2023-06-14T04:30:47;12;12;
56069;PMS5003;41944;52.078;-0.058;2023-06-14T04:33:15;9;9;
56069;PMS5003;41944;52.078;-0.058;2023-06-14T04:35:42;14;11;
56069;PMS5003;41944;52.078;-0.058;2023-06-14T04:38:09;8;8;
56069;PMS5003;41944;52.078;-0.058;2023-06-14T04:40:36;12;10;
56069;PMS5003;41944;52.078;-0.058;2023-06-14T04:43:03;10;10;
56069;PMS5003;41944;52.078;-0.058;2023-06-14T04:45:30;11;10;
56069;PMS5003;41944;52.078;-0.058;2023-06-14T04:47:58;13;11;
56069;PMS5003;41944;52.078;-0.058;2023-06-14T04:50:25;12;11;
56069;PMS5003;41944;52.078;-0.058;2023-06-14T04:52:52;13;12;
56069;PMS5003;41944;52.078;-0.058;2023-06-14T04:55:20;10;10;
56069;PMS5003;41944;52.078;-0.058;2023-06-14T04:57:47;17;16;
56069;PMS5003;41944;52.078;-0.058;2023-06-14T05:00:14;17;15;
56069;PMS5003;41944;52.078;-0.058;2023-06-14T05:02:42;11;10;
56069;PMS5003;41944;52.078;-0.058;2023-06-14T05:05:09;11;10;
56069;PMS5003;41944;52.078;-0.058;2023-06-14T05:07:36;11;11;
56069;PMS5003;41944;52.078;-0.058;2023-06-14T05:10:03;12;12;
56069;PMS5003;41944;52.078;-0.058;2023-06-14T05:12:31;14;12;
56069;PMS5003;41944;52.078;-0.058;2023-06-14T05:14:57;14;11;
56069;PMS5003;41944;52.078;-0.058;2023-06-14T05:17:24;17;15;
56069;PMS5003;41944;52.078;-0.058;2023-06-14T05:19:51;20;15;
56069;PMS5003;41944;52.078;-0.058;2023-06-14T05:22:18;15;13;
56069;PMS5003;41944;52.078;-0.058;2023-06-14T05:24:45;17;15;
56069;PMS5003;41944;52.078;-0.058;2023-06-14T05:27:13;19;13;
56069;PMS5003;41944;52.078;-0.058;2023-06-14T05:29:39;15;14;
56069;PMS5003;41944;52.078;-0.058;2023-06-14T05:32:06;14;14;
56069;PMS5003;41944;52.078;-0.058;2023-06-14T05:34:34;16;15;
56069;PMS5003;41944;52.078;-0.058;2023-06-14T05:37:01;21;17;
56069;PMS5003;41944;52.078;-0.058;2023-06-14T05:39:27;15;14;
56069;PMS5003;41944;52.078;-0.058;2023-06-14T05:41:54;18;16;
56069;PMS5003;41944;52.078;-0.058;2023-06-14T05:44:21;17;15;
56069;PMS5003;41944;52.078;-0.058;2023-06-14T05:46:48;14;13;
56069;PMS5003;41944;52.078;-0.058;2023-06-14T05:49:16;15;15;
56069;PMS5003;41944;52.078;-0.058;2023-06-14T05:51:42;19;18;
56069;PMS5003;41944;52.078;-0.058;2023-06-14T05:54:09;12;11;
56069;PMS5003;41944;52.078;-0.058;2023-06-14T05:56:36;21;16;
56069;PMS5003;41944;52.078;-0.058;2023-06-14T05:59:03;14;13;
56069;PMS5003;41944;52.078;-0.058;2023-06-14T06:01:30;18;15;
56069;PMS5003;41944;52.078;-0.058;2023-06-14T06:03:57;14;14;
56069;PMS5003;41944;52.078;-0.058;2023-06-14T06:06:24;15;13;
56069;PMS5003;41944;52.078;-0.058;2023-06-14T06:08:51;14;12;
56069;PMS5003;41944;52.078;-0.058;2023-06-14T06:11:18;15;12;
56069;PMS5003;41944;52.078;-0.058;2023-06-14T06:13:45;14;13;
56069;PMS5003;41944;52.078;-0.058;2023-06-14T06:16:13;17;14;
56069;PMS5003;41944;52.078;-0.058;2023-06-14T06:18:40;13;13;
56069;PMS5003;41944;52.078;-0.058;2023-06-14T06:21:07;15;12;
56069;PMS5003;41944;52.078;-0.058;2023-06-14T06:23:34;13;13;
56069;PMS5003;41944;52.078;-0.058;2023-06-14T06:26:01;12;11;
56069;PMS5003;41944;52.078;-0.058;2023-06-14T06:28:28;16;16;
56069;PMS5003;41944;52.078;-0.058;2023-06-14T06:30:55;18;15;
56069;PMS5003;41944;52.078;-0.058;2023-06-14T06:33:22;16;11;
56069;PMS5003;41944;52.078;-0.058;2023-06-14T06:35:49;18;13;
56069;PMS5003;41944;52.078;-0.058;2023-06-14T06:38:16;16;14;
56069;PMS5003;41944;52.078;-0.058;2023-06-14T06:40:43;13;13;
56069;PMS5003;41944;52.078;-0.058;2023-06-14T06:43:10;12;11;
56069;PMS5003;41944;52.078;-0.058;2023-06-14T06:45:37;12;10;
56069;PMS5003;41944;52.078;-0.058;2023-06-14T06:48:04;9;9;
56069;PMS5003;41944;52.078;-0.058;2023-06-14T06:50:31;15;13;
56069;PMS5003;41944;52.078;-0.058;2023-06-14T06:52:58;13;12;
56069;PMS5003;41944;52.078;-0.058;2023-06-14T06:55:25;12;11;
56069;PMS5003;41944;52.078;-0.058;2023-06-14T06:57:52;15;12;
56069;PMS5003;41944;52.078;-0.058;2023-06-14T07:00:20;9;8;
56069;PMS5003;41944;52.078;-0.058;2023-06-14T07:02:47;20;18;
56069;PMS5003;41944;52.078;-0.058;2023-06-14T07:05:14;11;10;
56069;PMS5003;41944;52.078;-0.058;2023-06-14T07:07:41;14;11;
56069;PMS5003;41944;52.078;-0.058;2023-06-14T07:10:08;11;9;
56069;PMS5003;41944;52.078;-0.058;2023-06-14T07:12:35;12;11;
56069;PMS5003;41944;52.078;-0.058;2023-06-14T07:15:02;11;8;
56069;PMS5003;41944;52.078;-0.058;2023-06-14T07:17:30;9;8;
56069;PMS5003;41944;52.078;-0.058;2023-06-14T07:19:57;11;10;
56069;PMS5003;41944;52.078;-0.058;2023-06-14T07:22:24;14;10;
56069;PMS5003;41944;52.078;-0.058;2023-06-14T07:24:51;16;9;
56069;PMS5003;41944;52.078;-0.058;2023-06-14T07:27:18;16;13;
56069;PMS5003;41944;52.078;-0.058;2023-06-14T07:29:45;12;11;
56069;PMS5003;41944;52.078;-0.058;2023-06-14T07:32:12;22;19;
56069;PMS5003;41944;52.078;-0.058;2023-06-14T07:34:40;14;9;
56069;PMS5003;41944;52.078;-0.058;2023-06-14T07:37:07;12;11;
56069;PMS5003;41944;52.078;-0.058;2023-06-14T07:39:34;10;10;
56069;PMS5003;41944;52.078;-0.058;2023-06-14T07:42:00;10;9;
56069;PMS5003;41944;52.078;-0.058;2023-06-14T07:44:29;15;10;
56069;PMS5003;41944;52.078;-0.058;2023-06-14T07:46:56;14;12;
56069;PMS5003;41944;52.078;-0.058;2023-06-14T07:49:23;12;12;
56069;PMS5003;41944;52.078;-0.058;2023-06-14T07:51:50;16;12;
56069;PMS5003;41944;52.078;-0.058;2023-06-14T07:54:17;14;14;
56069;PMS5003;41944;52.078;-0.058;2023-06-14T07:56:45;13;11;
56069;PMS5003;41944;52.078;-0.058;2023-06-14T07:59:11;11;11;
56069;PMS5003;41944;52.078;-0.058;2023-06-14T08:01:38;9;9;
56069;PMS5003;41944;52.078;-0.058;2023-06-14T08:04:05;15;11;
56069;PMS5003;41944;52.078;-0.058;2023-06-14T08:06:32;10;10;
56069;PMS5003;41944;52.078;-0.058;2023-06-14T08:09:00;12;12;
56069;PMS5003;41944;52.078;-0.058;2023-06-14T08:11:27;11;10;
56069;PMS5003;41944;52.078;-0.058;2023-06-14T08:13:54;10;10;
56069;PMS5003;41944;52.078;-0.058;2023-06-14T08:16:22;15;12;
56069;PMS5003;41944;52.078;-0.058;2023-06-14T08:18:49;10;8;
56069;PMS5003;41944;52.078;-0.058;2023-06-14T08:21:16;13;10;
56069;PMS5003;41944;52.078;-0.058;2023-06-14T08:23:43;16;12;
56069;PMS5003;41944;52.078;-0.058;2023-06-14T08:26:10;11;9;
56069;PMS5003;41944;52.078;-0.058;2023-06-14T08:28:37;18;13;
56069;PMS5003;41944;52.078;-0.058;2023-06-14T08:31:04;11;9;
56069;PMS5003;41944;52.078;-0.058;2023-06-14T08:33:30;14;13;
56069;PMS5003;41944;52.078;-0.058;2023-06-14T08:35:57;13;12;
56069;PMS5003;41944;52.078;-0.058;2023-06-14T08:38:24;10;10;
56069;PMS5003;41944;52.078;-0.058;2023-06-14T08:40:51;12;10;
56069;PMS5003;41944;52.078;-0.058;2023-06-14T08:43:23;11;11;
56069;PMS5003;41944;52.078;-0.058;2023-06-14T08:45:51;12;9;
56069;PMS5003;41944;52.078;-0.058;2023-06-14T08:48:25;15;14;
56069;PMS5003;41944;52.078;-0.058;2023-06-14T08:50:53;16;12;
56069;PMS5003;41944;52.078;-0.058;2023-06-14T08:53:22;17;14;
56069;PMS5003;41944;52.078;-0.058;2023-06-14T08:55:50;15;12;
56069;PMS5003;41944;52.078;-0.058;2023-06-14T08:58:17;12;10;
56069;PMS5003;41944;52.078;-0.058;2023-06-14T09:00:45;11;11;
56069;PMS5003;41944;52.078;-0.058;2023-06-14T09:03:13;11;10;
56069;PMS5003;41944;52.078;-0.058;2023-06-14T09:05:39;10;10;
56069;PMS5003;41944;52.078;-0.058;2023-06-14T09:08:07;14;11;
56069;PMS5003;41944;52.078;-0.058;2023-06-14T09:10:34;15;15;
56069;PMS5003;41944;52.078;-0.058;2023-06-14T09:13:02;14;11;
56069;PMS5003;41944;52.078;-0.058;2023-06-14T09:15:30;14;11;
56069;PMS5003;41944;52.078;-0.058;2023-06-14T09:17:57;15;11;
56069;PMS5003;41944;52.078;-0.058;2023-06-14T09:20:28;15;10;
56069;PMS5003;41944;52.078;-0.058;2023-06-14T09:22:56;9;8;
56069;PMS5003;41944;52.078;-0.058;2023-06-14T09:25:24;16;15;
56069;PMS5003;41944;52.078;-0.058;2023-06-14T09:27:51;14;10;
56069;PMS5003;41944;52.078;-0.058;2023-06-14T09:30:19;13;12;
56069;PMS5003;41944;52.078;-0.058;2023-06-14T09:32:47;16;13;
56069;PMS5003;41944;52.078;-0.058;2023-06-14T09:35:14;13;12;
56069;PMS5003;41944;52.078;-0.058;2023-06-14T09:37:44;13;9;
56069;PMS5003;41944;52.078;-0.058;2023-06-14T09:40:11;11;10;
56069;PMS5003;41944;52.078;-0.058;2023-06-14T09:42:38;15;13;
56069;PMS5003;41944;52.078;-0.058;2023-06-14T09:45:06;15;15;
56069;PMS5003;41944;52.078;-0.058;2023-06-14T09:47:34;13;11;
56069;PMS5003;41944;52.078;-0.058;2023-06-14T09:50:00;19;16;
56069;PMS5003;41944;52.078;-0.058;2023-06-14T09:52:28;13;12;
56069;PMS5003;41944;52.078;-0.058;2023-06-14T09:54:56;16;13;
56069;PMS5003;41944;52.078;-0.058;2023-06-14T09:57:25;15;13;
56069;PMS5003;41944;52.078;-0.058;2023-06-14T09:59:56;18;16;
56069;PMS5003;41944;52.078;-0.058;2023-06-14T10:02:25;12;12;
56069;PMS5003;41944;52.078;-0.058;2023-06-14T10:04:55;19;15;
56069;PMS5003;41944;52.078;-0.058;2023-06-14T10:07:27;11;11;
56069;PMS5003;41944;52.078;-0.058;2023-06-14T10:09:58;17;12;
56069;PMS5003;41944;52.078;-0.058;2023-06-14T10:12:26;18;17;
56069;PMS5003;41944;52.078;-0.058;2023-06-14T10:14:54;20;18;
56069;PMS5003;41944;52.078;-0.058;2023-06-14T10:17:24;23;17;
56069;PMS5003;41944;52.078;-0.058;2023-06-14T10:20:05;18;15;
56069;PMS5003;41944;52.078;-0.058;2023-06-14T10:22:45;18;14;
56069;PMS5003;41944;52.078;-0.058;2023-06-14T10:25:33;17;16;
56069;PMS5003;41944;52.078;-0.058;2023-06-14T10:28:16;20;16;
56069;PMS5003;41944;52.078;-0.058;2023-06-14T10:31:16;17;16;
56069;PMS5003;41944;52.078;-0.058;2023-06-14T10:33:48;20;14;
56069;PMS5003;41944;52.078;-0.058;2023-06-14T10:36:24;16;14;
56069;PMS5003;41944;52.078;-0.058;2023-06-14T10:38:57;17;13;
56069;PMS5003;41944;52.078;-0.058;2023-06-14T10:41:25;15;14;
56069;PMS5003;41944;52.078;-0.058;2023-06-14T10:44:10;14;12;
56069;PMS5003;41944;52.078;-0.058;2023-06-14T10:47:11;19;15;
56069;PMS5003;41944;52.078;-0.058;2023-06-14T10:49:55;14;14;
56069;PMS5003;41944;52.078;-0.058;2023-06-14T10:52:25;17;17;
56069;PMS5003;41944;52.078;-0.058;2023-06-14T10:55:01;15;12;
56069;PMS5003;41944;52.078;-0.058;2023-06-14T10:57:32;16;13;
56069;PMS5003;41944;52.078;-0.058;2023-06-14T10:59:59;14;11;
56069;PMS5003;41944;52.078;-0.058;2023-06-14T11:02:35;14;13;
56069;PMS5003;41944;52.078;-0.058;2023-06-14T11:05:24;11;11;
56069;PMS5003;41944;52.078;-0.058;2023-06-14T11:07:58;14;11;
56069;PMS5003;41944;52.078;-0.058;2023-06-14T11:10:41;14;10;
56069;PMS5003;41944;52.078;-0.058;2023-06-14T11:13:11;12;12;
56069;PMS5003;41944;52.078;-0.058;2023-06-14T11:15:38;14;13;
56069;PMS5003;41944;52.078;-0.058;2023-06-14T11:18:09;15;10;
56069;PMS5003;41944;52.078;-0.058;2023-06-14T11:20:36;14;13;
56069;PMS5003;41944;52.078;-0.058;2023-06-14T11:23:04;13;10;
56069;PMS5003;41944;52.078;-0.058;2023-06-14T11:25:31;14;13;
56069;PMS5003;41944;52.078;-0.058;2023-06-14T11:27:58;9;9;
56069;PMS5003;41944;52.078;-0.058;2023-06-14T11:30:25;11;11;
56069;PMS5003;41944;52.078;-0.058;2023-06-14T11:32:53;13;13;
56069;PMS5003;41944;52.078;-0.058;2023-06-14T11:35:21;14;13;
56069;PMS5003;41944;52.078;-0.058;2023-06-14T11:37:52;12;11;
56069;PMS5003;41944;52.078;-0.058;2023-06-14T11:40:19;14;13;
56069;PMS5003;41944;52.078;-0.058;2023-06-14T11:42:49;14;12;
56069;PMS5003;41944;52.078;-0.058;2023-06-14T11:45:24;11;10;
56069;PMS5003;41944;52.078;-0.058;2023-06-14T11:47:53;16;11;
56069;PMS5003;41944;52.078;-0.058;2023-06-14T11:50:22;14;12;
56069;PMS5003;41944;52.078;-0.058;2023-06-14T11:52:52;13;11;
56069;PMS5003;41944;52.078;-0.058;2023-06-14T11:55:19;12;12;
56069;PMS5003;41944;52.078;-0.058;2023-06-14T11:57:47;16;13;
56069;PMS5003;41944;52.078;-0.058;2023-06-14T12:00:14;13;12;
56069;PMS5003;41944;52.078;-0.058;2023-06-14T12:02:42;11;11;
56069;PMS5003;41944;52.078;-0.058;2023-06-14T12:05:20;10;8;
56069;PMS5003;41944;52.078;-0.058;2023-06-14T12:07:48;13;12;
56069;PMS5003;41944;52.078;-0.058;2023-06-14T12:10:16;13;12;
56069;PMS5003;41944;52.078;-0.058;2023-06-14T12:12:43;14;13;
56069;PMS5003;41944;52.078;-0.058;2023-06-14T12:15:10;16;12;
56069;PMS5003;41944;52.078;-0.058;2023-06-14T12:17:38;12;12;
56069;PMS5003;41944;52.078;-0.058;2023-06-14T12:20:06;13;13;
56069;PMS5003;41944;52.078;-0.058;2023-06-14T12:22:34;14;12;
56069;PMS5003;41944;52.078;-0.058;2023-06-14T12:25:01;14;12;
56069;PMS5003;41944;52.078;-0.058;2023-06-14T12:27:28;11;11;
56069;PMS5003;41944;52.078;-0.058;2023-06-14T12:29:59;13;13;
56069;PMS5003;41944;52.078;-0.058;2023-06-14T12:32:26;16;15;
56069;PMS5003;41944;52.078;-0.058;2023-06-14T12:34:53;14;12;
56069;PMS5003;41944;52.078;-0.058;2023-06-14T12:37:20;14;13;
56069;PMS5003;41944;52.078;-0.058;2023-06-14T12:39:47;16;14;
56069;PMS5003;41944;52.078;-0.058;2023-06-14T12:42:14;24;18;
56069;PMS5003;41944;52.078;-0.058;2023-06-14T12:44:42;18;16;
56069;PMS5003;41944;52.078;-0.058;2023-06-14T12:47:09;23;19;
56069;PMS5003;41944;52.078;-0.058;2023-06-14T12:49:35;21;18;
56069;PMS5003;41944;52.078;-0.058;2023-06-14T12:52:03;20;19;
56069;PMS5003;41944;52.078;-0.058;2023-06-14T12:54:33;23;18;
56069;PMS5003;41944;52.078;-0.058;2023-06-14T12:57:00;16;16;
56069;PMS5003;41944;52.078;-0.058;2023-06-14T12:59:26;16;14;
56069;PMS5003;41944;52.078;-0.058;2023-06-14T13:01:53;16;14;
56069;PMS5003;41944;52.078;-0.058;2023-06-14T13:04:20;18;17;
56069;PMS5003;41944;52.078;-0.058;2023-06-14T13:06:47;13;12;
56069;PMS5003;41944;52.078;-0.058;2023-06-14T13:09:14;21;20;
56069;PMS5003;41944;52.078;-0.058;2023-06-14T13:11:41;17;15;
56069;PMS5003;41944;52.078;-0.058;2023-06-14T13:14:08;13;12;
56069;PMS5003;41944;52.078;-0.058;2023-06-14T13:16:35;16;15;
56069;PMS5003;41944;52.078;-0.058;2023-06-14T13:19:02;16;15;
56069;PMS5003;41944;52.078;-0.058;2023-06-14T13:21:29;17;14;
56069;PMS5003;41944;52.078;-0.058;2023-06-14T13:23:57;16;14;
56069;PMS5003;41944;52.078;-0.058;2023-06-14T13:26:23;14;12;
56069;PMS5003;41944;52.078;-0.058;2023-06-14T13:28:50;15;13;
56069;PMS5003;41944;52.078;-0.058;2023-06-14T13:31:18;13;13;
56069;PMS5003;41944;52.078;-0.058;2023-06-14T13:33:45;17;15;
56069;PMS5003;41944;52.078;-0.058;2023-06-14T13:36:12;13;13;
56069;PMS5003;41944;52.078;-0.058;2023-06-14T13:38:39;11;11;
56069;PMS5003;41944;52.078;-0.058;2023-06-14T13:41:06;15;14;
56069;PMS5003;41944;52.078;-0.058;2023-06-14T13:43:33;14;14;
56069;PMS5003;41944;52.078;-0.058;2023-06-14T13:46:00;12;12;
56069;PMS5003;41944;52.078;-0.058;2023-06-14T13:48:27;18;14;
56069;PMS5003;41944;52.078;-0.058;2023-06-14T13:50:54;12;12;
56069;PMS5003;41944;52.078;-0.058;2023-06-14T13:53:21;16;13;
56069;PMS5003;41944;52.078;-0.058;2023-06-14T13:55:48;17;16;
56069;PMS5003;41944;52.078;-0.058;2023-06-14T13:58:15;15;14;
56069;PMS5003;41944;52.078;-0.058;2023-06-14T14:00:42;16;15;
56069;PMS5003;41944;52.078;-0.058;2023-06-14T14:03:10;19;15;
56069;PMS5003;41944;52.078;-0.058;2023-06-14T14:05:37;15;13;
56069;PMS5003;41944;52.078;-0.058;2023-06-14T14:08:04;15;15;
56069;PMS5003;41944;52.078;-0.058;2023-06-14T14:10:31;18;15;
56069;PMS5003;41944;52.078;-0.058;2023-06-14T14:12:58;14;14;
56069;PMS5003;41944;52.078;-0.058;2023-06-14T14:15:25;20;17;
56069;PMS5003;41944;52.078;-0.058;2023-06-14T14:17:52;16;16;
56069;PMS5003;41944;52.078;-0.058;2023-06-14T14:20:18;20;18;
56069;PMS5003;41944;52.078;-0.058;2023-06-14T14:22:45;12;12;
56069;PMS5003;41944;52.078;-0.058;2023-06-14T14:25:12;15;15;
56069;PMS5003;41944;52.078;-0.058;2023-06-14T14:27:39;13;12;
56069;PMS5003;41944;52.078;-0.058;2023-06-14T14:30:06;16;15;
56069;PMS5003;41944;52.078;-0.058;2023-06-14T14:32:34;19;14;
56069;PMS5003;41944;52.078;-0.058;2023-06-14T14:35:01;16;12;
56069;PMS5003;41944;52.078;-0.058;2023-06-14T14:37:28;15;14;
56069;PMS5003;41944;52.078;-0.058;2023-06-14T14:39:55;16;14;
56069;PMS5003;41944;52.078;-0.058;2023-06-14T14:42:22;14;14;
56069;PMS5003;41944;52.078;-0.058;2023-06-14T14:44:49;12;12;
56069;PMS5003;41944;52.078;-0.058;2023-06-14T14:47:16;15;15;
56069;PMS5003;41944;52.078;-0.058;2023-06-14T14:49:43;12;12;
56069;PMS5003;41944;52.078;-0.058;2023-06-14T14:52:10;13;13;
56069;PMS5003;41944;52.078;-0.058;2023-06-14T14:54:37;18;18;
56069;PMS5003;41944;52.078;-0.058;2023-06-14T14:57:04;19;17;
56069;PMS5003;41944;52.078;-0.058;2023-06-14T14:59:32;16;16;
56069;PMS5003;41944;52.078;-0.058;2023-06-14T15:01:59;15;14;
56069;PMS5003;41944;52.078;-0.058;2023-06-14T15:04:26;14;11;
56069;PMS5003;41944;52.078;-0.058;2023-06-14T15:06:52;16;15;
56069;PMS5003;41944;52.078;-0.058;2023-06-14T15:09:20;15;15;
56069;PMS5003;41944;52.078;-0.058;2023-06-14T15:11:46;13;13;
56069;PMS5003;41944;52.078;-0.058;2023-06-14T15:14:13;13;13;
56069;PMS5003;41944;52.078;-0.058;2023-06-14T15:16:40;11;11;
56069;PMS5003;41944;52.078;-0.058;2023-06-14T15:19:07;16;16;
56069;PMS5003;41944;52.078;-0.058;2023-06-14T15:21:35;18;17;
56069;PMS5003;41944;52.078;-0.058;2023-06-14T15:24:01;14;14;
56069;PMS5003;41944;52.078;-0.058;2023-06-14T15:26:28;16;14;
56069;PMS5003;41944;52.078;-0.058;2023-06-14T15:28:55;16;15;
56069;PMS5003;41944;52.078;-0.058;2023-06-14T15:31:22;15;15;
56069;PMS5003;41944;52.078;-0.058;2023-06-14T15:33:49;15;15;
56069;PMS5003;41944;52.078;-0.058;2023-06-14T15:36:16;19;16;
56069;PMS5003;41944;52.078;-0.058;2023-06-14T15:38:43;15;14;
56069;PMS5003;41944;52.078;-0.058;2023-06-14T15:41:10;15;13;
56069;PMS5003;41944;52.078;-0.058;2023-06-14T15:43:37;17;14;
56069;PMS5003;41944;52.078;-0.058;2023-06-14T15:46:04;15;12;
56069;PMS5003;41944;52.078;-0.058;2023-06-14T15:48:31;16;14;
56069;PMS5003;41944;52.078;-0.058;2023-06-14T15:50:58;16;15;
56069;PMS5003;41944;52.078;-0.058;2023-06-14T15:53:25;13;11;
56069;PMS5003;41944;52.078;-0.058;2023-06-14T15:55:52;13;12;
56069;PMS5003;41944;52.078;-0.058;2023-06-14T15:58:19;16;13;
56069;PMS5003;41944;52.078;-0.058;2023-06-14T16:00:46;16;16;
56069;PMS5003;41944;52.078;-0.058;2023-06-14T16:03:13;15;14;
56069;PMS5003;41944;52.078;-0.058;2023-06-14T16:05:40;14;13;
56069;PMS5003;41944;52.078;-0.058;2023-06-14T16:08:06;15;14;
56069;PMS5003;41944;52.078;-0.058;2023-06-14T16:10:33;13;13;
56069;PMS5003;41944;52.078;-0.058;2023-06-14T16:13:00;13;13;